Time;durP1;ratioP1;P1;durP2;ratioP2;P2;SDS_P1;SDS_P2;PMS_P1;PMS_P2;Temp;Humidity;BMP_temperature;BMP_pressure;BME280_temperature;BME280_humidity;BME280_pressure;Samples;Min_cycle;Max_cycle;Signal;HPM_P1;HPM_P2
2021/11/21 00:02:09;;;;;;;6.60;5.85;;;;;;;;;;5015951;28;20036;-59
2021/11/21 00:04:35;;;;;;;6.90;6.20;;;;;;;;;;5018061;28;20038;-58
2021/11/21 00:07:00;;;;;;;9.52;6.68;;;;;;;;;;5016457;28;20026;-58
2021/11/21 00:09:26;;;;;;;7.75;6.68;;;;;;;;;;5015807;28;20064;-58
2021/11/21 00:11:52;;;;;;;5.28;4.75;;;;;;;;;;5000786;28;20061;-59
2021/11/21 00:14:17;;;;;;;6.63;5.40;;;;;;;;;;5015043;28;20045;-59
2021/11/21 00:16:43;;;;;;;9.32;6.80;;;;;;;;;;5013294;28;20038;-58
2021/11/21 00:19:08;;;;;;;6.75;4.85;;;;;;;;;;5014512;28;20038;-58
2021/11/21 00:21:34;;;;;;;7.03;6.32;;;;;;;;;;5019134;28;20403;-58
2021/11/21 00:23:59;;;;;;;7.65;6.75;;;;;;;;;;5014912;28;20039;-57
2021/11/21 00:26:25;;;;;;;7.13;5.47;;;;;;;;;;5014245;28;20108;-58
2021/11/21 00:28:51;;;;;;;10.32;5.85;;;;;;;;;;5014294;28;20029;-58
2021/11/21 00:31:17;;;;;;;7.55;5.63;;;;;;;;;;5014748;28;20033;-59
2021/11/21 00:33:43;;;;;;;4.50;4.10;;;;;;;;;;5014152;28;20385;-59
2021/11/21 00:36:08;;;;;;;6.78;6.07;;;;;;;;;;5016476;28;20084;-59
2021/11/21 00:38:34;;;;;;;6.68;6.03;;;;;;;;;;5017588;28;20113;-49
2021/11/21 00:40:59;;;;;;;8.70;7.00;;;;;;;;;;5018656;28;20470;-50
2021/11/21 00:43:25;;;;;;;7.90;6.53;;;;;;;;;;5014707;28;20033;-51
2021/11/21 00:45:51;;;;;;;6.95;5.93;;;;;;;;;;5013525;28;20047;-49
2021/11/21 00:48:23;;;;;;;5.72;5.13;;;;;;;;;;5017943;28;20041;-51
2021/11/21 00:50:51;;;;;;;6.60;5.78;;;;;;;;;;5015483;28;20034;-48
2021/11/21 00:53:17;;;;;;;10.73;5.90;;;;;;;;;;5011646;28;20041;-52
2021/11/21 00:55:54;;;;;;;10.23;5.15;;;;;;;;;;5016064;28;20363;-59
2021/11/21 00:58:20;;;;;;;5.88;4.70;;;;;;;;;;5015013;28;20030;-58
2021/11/21 01:00:48;;;;;;;6.65;5.80;;;;;;;;;;5006551;28;20040;-59
2021/11/21 01:03:16;;;;;;;8.20;5.95;;;;;;;;;;5013649;28;20033;-59
2021/11/21 01:05:44;;;;;;;6.68;5.95;;;;;;;;;;5013295;28;20037;-58
2021/11/21 01:08:10;;;;;;;12.13;6.78;;;;;;;;;;5014788;28;20068;-58
2021/11/21 01:10:37;;;;;;;8.55;6.22;;;;;;;;;;5014243;28;20044;-58
2021/11/21 01:13:02;;;;;;;8.55;6.55;;;;;;;;;;5013189;28;20045;-59
2021/11/21 01:15:28;;;;;;;7.53;6.63;;;;;;;;;;5014709;28;20490;-58
2021/11/21 01:17:56;;;;;;;7.13;5.90;;;;;;;;;;5010452;28;20041;-49
2021/11/21 01:20:25;;;;;;;8.50;6.07;;;;;;;;;;5014908;28;20130;-49
2021/11/21 01:22:51;;;;;;;7.45;5.60;;;;;;;;;;5016007;28;20700;-49
2021/11/21 01:25:17;;;;;;;7.40;5.95;;;;;;;;;;5017556;28;20042;-51
2021/11/21 01:27:43;;;;;;;7.18;6.20;;;;;;;;;;5013781;28;20061;-51
2021/11/21 01:30:13;;;;;;;19.63;7.22;;;;;;;;;;5014692;28;20065;-52
2021/11/21 01:32:39;;;;;;;8.73;6.95;;;;;;;;;;5027722;28;20144;-49
2021/11/21 01:35:05;;;;;;;6.00;5.40;;;;;;;;;;5009851;28;20112;-48
2021/11/21 01:37:31;;;;;;;6.07;4.45;;;;;;;;;;5014841;28;20445;-51
2021/11/21 01:39:56;;;;;;;7.65;5.60;;;;;;;;;;5014660;28;20029;-47
2021/11/21 01:42:23;;;;;;;11.63;5.05;;;;;;;;;;5014552;28;20033;-50
2021/11/21 01:44:50;;;;;;;11.35;6.70;;;;;;;;;;5014572;28;20033;-50
2021/11/21 01:47:16;;;;;;;8.70;5.72;;;;;;;;;;5010366;28;20029;-51
2021/11/21 01:49:41;;;;;;;8.00;5.53;;;;;;;;;;5013200;28;20041;-49
2021/11/21 01:52:07;;;;;;;7.55;5.25;;;;;;;;;;5013744;28;20414;-51
2021/11/21 01:54:33;;;;;;;10.45;5.80;;;;;;;;;;5011973;28;20033;-50
2021/11/21 01:56:59;;;;;;;6.22;5.28;;;;;;;;;;5013339;28;20049;-51
2021/11/21 01:59:24;;;;;;;8.95;5.82;;;;;;;;;;5014792;28;20369;-51
2021/11/21 02:01:49;;;;;;;6.40;4.97;;;;;;;;;;5016171;28;20526;-50
2021/11/21 02:04:15;;;;;;;6.85;5.60;;;;;;;;;;5015739;28;20037;-51
2021/11/21 02:06:40;;;;;;;7.38;5.63;;;;;;;;;;5015363;28;20042;-49
2021/11/21 02:09:06;;;;;;;7.88;5.93;;;;;;;;;;5014277;28;20879;-48
2021/11/21 02:11:32;;;;;;;6.50;5.43;;;;;;;;;;5014861;28;20091;-50
2021/11/21 02:13:58;;;;;;;7.20;6.45;;;;;;;;;;5011801;28;20107;-47
2021/11/21 02:16:26;;;;;;;7.07;5.10;;;;;;;;;;5012286;28;20104;-48
2021/11/21 02:18:52;;;;;;;6.88;6.10;;;;;;;;;;5013434;28;20117;-49
2021/11/21 02:21:19;;;;;;;6.93;5.15;;;;;;;;;;5011830;28;20167;-52
2021/11/21 02:23:46;;;;;;;7.15;5.38;;;;;;;;;;5011539;28;20456;-50
2021/11/21 02:26:14;;;;;;;6.45;4.93;;;;;;;;;;5015393;28;20049;-50
2021/11/21 02:28:40;;;;;;;8.13;5.85;;;;;;;;;;5010658;28;20044;-51
2021/11/21 02:31:06;;;;;;;7.15;6.00;;;;;;;;;;5015680;28;20041;-48
2021/11/21 02:33:32;;;;;;;7.70;6.65;;;;;;;;;;5012783;28;20045;-49
2021/11/21 02:35:59;;;;;;;7.18;5.32;;;;;;;;;;5011403;28;20034;-49
2021/11/21 02:38:27;;;;;;;7.05;6.32;;;;;;;;;;5015278;28;20036;-49
2021/11/21 02:40:54;;;;;;;6.78;5.47;;;;;;;;;;5015938;28;20014;-53
2021/11/21 02:43:21;;;;;;;5.88;4.95;;;;;;;;;;5015011;28;20037;-48
2021/11/21 02:45:48;;;;;;;6.68;5.60;;;;;;;;;;5014240;28;20041;-48
2021/11/21 02:48:19;;;;;;;10.65;6.20;;;;;;;;;;5014779;28;20122;-51
2021/11/21 02:50:46;;;;;;;7.40;5.65;;;;;;;;;;5013046;28;20049;-48
2021/11/21 02:53:14;;;;;;;7.75;6.28;;;;;;;;;;5013834;28;20068;-49
2021/11/21 02:55:40;;;;;;;7.28;5.57;;;;;;;;;;5015154;28;20068;-47
2021/11/21 02:58:06;;;;;;;7.00;6.18;;;;;;;;;;5014405;28;20041;-49
2021/11/21 03:00:35;;;;;;;6.40;4.88;;;;;;;;;;5019544;28;20060;-50
2021/11/21 03:03:01;;;;;;;7.78;6.07;;;;;;;;;;5019508;28;20929;-50
2021/11/21 03:05:26;;;;;;;6.50;5.30;;;;;;;;;;5015756;28;20441;-50
2021/11/21 03:07:52;;;;;;;8.55;5.90;;;;;;;;;;5015486;28;20069;-48
2021/11/21 03:10:20;;;;;;;7.07;5.47;;;;;;;;;;5015312;28;20072;-47
2021/11/21 03:12:48;;;;;;;6.93;4.38;;;;;;;;;;4999258;28;20532;-50
2021/11/21 03:15:13;;;;;;;8.20;6.80;;;;;;;;;;5017455;28;20041;-49
2021/11/21 03:17:42;;;;;;;5.55;4.93;;;;;;;;;;5017747;28;20026;-47
2021/11/21 03:20:08;;;;;;;4.50;3.97;;;;;;;;;;5015341;28;20040;-47
2021/11/21 03:22:34;;;;;;;8.35;6.32;;;;;;;;;;5017772;28;20472;-48
2021/11/21 03:24:59;;;;;;;9.63;7.05;;;;;;;;;;5017051;28;20093;-47
2021/11/21 03:27:26;;;;;;;12.95;6.00;;;;;;;;;;5020273;28;20022;-48
2021/11/21 03:29:52;;;;;;;7.20;5.30;;;;;;;;;;5015968;28;20423;-52
2021/11/21 03:32:17;;;;;;;6.40;5.40;;;;;;;;;;5018985;28;20034;-49
2021/11/21 03:34:43;;;;;;;6.35;5.25;;;;;;;;;;5017997;28;20390;-49
2021/11/21 03:37:10;;;;;;;7.00;5.40;;;;;;;;;;5014892;28;20450;-48
2021/11/21 03:39:36;;;;;;;8.27;6.10;;;;;;;;;;5016954;28;20030;-51
2021/11/21 03:42:03;;;;;;;9.55;6.18;;;;;;;;;;5015288;28;20037;-50
2021/11/21 03:44:28;;;;;;;7.90;5.97;;;;;;;;;;5012821;28;20454;-50
2021/11/21 03:46:54;;;;;;;6.50;5.40;;;;;;;;;;5018337;28;20029;-52
2021/11/21 03:49:19;;;;;;;6.85;5.55;;;;;;;;;;5019305;28;20038;-51
2021/11/21 03:51:44;;;;;;;7.03;5.18;;;;;;;;;;5019212;28;20042;-50
2021/11/21 03:54:10;;;;;;;9.02;7.00;;;;;;;;;;5016143;28;20444;-49
2021/11/21 03:56:35;;;;;;;8.82;5.80;;;;;;;;;;5017022;28;20087;-52
2021/11/21 03:59:02;;;;;;;7.45;5.82;;;;;;;;;;5016859;28;20073;-51
2021/11/21 04:01:27;;;;;;;11.80;5.53;;;;;;;;;;5017451;28;20049;-48
2021/11/21 04:03:52;;;;;;;6.88;5.22;;;;;;;;;;5015547;28;20065;-50
2021/11/21 04:06:18;;;;;;;5.97;5.32;;;;;;;;;;5018594;28;20044;-47
2021/11/21 04:08:44;;;;;;;5.75;4.88;;;;;;;;;;5018454;28;20038;-47
2021/11/21 04:11:10;;;;;;;6.78;6.07;;;;;;;;;;5016865;28;20026;-48
2021/11/21 04:13:35;;;;;;;10.43;5.82;;;;;;;;;;5011243;28;20108;-47
2021/11/21 04:16:00;;;;;;;7.05;5.90;;;;;;;;;;5017526;28;20041;-47
2021/11/21 04:18:26;;;;;;;9.15;5.60;;;;;;;;;;5014086;28;20030;-48
2021/11/21 04:20:51;;;;;;;8.73;5.80;;;;;;;;;;5016263;28;20049;-50
2021/11/21 04:23:17;;;;;;;6.40;5.10;;;;;;;;;;5014679;28;20041;-49
2021/11/21 04:25:42;;;;;;;7.50;5.53;;;;;;;;;;5015475;28;20439;-49
2021/11/21 04:28:09;;;;;;;7.07;5.28;;;;;;;;;;5014653;28;20037;-47
2021/11/21 04:30:35;;;;;;;5.93;4.03;;;;;;;;;;5014893;28;20044;-47
2021/11/21 04:33:00;;;;;;;5.82;4.82;;;;;;;;;;5014099;28;20091;-48
2021/11/21 04:35:26;;;;;;;6.93;5.03;;;;;;;;;;5015196;28;20515;-49
2021/11/21 04:37:51;;;;;;;6.53;5.00;;;;;;;;;;5015611;28;20387;-48
2021/11/21 04:40:17;;;;;;;6.35;4.95;;;;;;;;;;5014705;28;20026;-48
2021/11/21 04:42:43;;;;;;;5.65;4.18;;;;;;;;;;5012833;28;20482;-49
2021/11/21 04:45:10;;;;;;;6.07;5.35;;;;;;;;;;5017018;28;20041;-49
2021/11/21 04:47:36;;;;;;;5.18;4.65;;;;;;;;;;5012779;28;20038;-47
2021/11/21 04:50:03;;;;;;;5.10;4.63;;;;;;;;;;5015257;28;20371;-51
2021/11/21 04:52:28;;;;;;;5.65;3.72;;;;;;;;;;5014137;28;20038;-48
2021/11/21 04:54:54;;;;;;;7.32;5.18;;;;;;;;;;5013259;28;20025;-49
2021/11/21 04:57:19;;;;;;;8.82;5.28;;;;;;;;;;5013991;28;20648;-48
2021/11/21 04:59:44;;;;;;;10.73;6.20;;;;;;;;;;5014924;28;20033;-49
2021/11/21 05:02:10;;;;;;;6.47;4.65;;;;;;;;;;5015663;28;20482;-47
2021/11/21 05:04:36;;;;;;;6.70;4.95;;;;;;;;;;5015597;28;20041;-51
2021/11/21 05:07:03;;;;;;;8.60;6.20;;;;;;;;;;5016594;28;20041;-50
2021/11/21 05:09:28;;;;;;;7.25;5.60;;;;;;;;;;5018472;28;20037;-49
2021/11/21 05:11:54;;;;;;;5.93;4.35;;;;;;;;;;5013139;28;20336;-50
2021/11/21 05:14:21;;;;;;;5.68;4.47;;;;;;;;;;5013397;28;20038;-49
2021/11/21 05:16:47;;;;;;;7.05;5.05;;;;;;;;;;5014890;28;20026;-60
2021/11/21 05:19:13;;;;;;;6.13;5.53;;;;;;;;;;5012259;28;20034;-60
2021/11/21 05:21:39;;;;;;;5.75;5.03;;;;;;;;;;5015495;28;20087;-60
2021/11/21 05:24:04;;;;;;;6.03;4.68;;;;;;;;;;5012440;28;20095;-59
2021/11/21 05:26:30;;;;;;;7.40;5.07;;;;;;;;;;5012017;28;20034;-60
2021/11/21 05:28:55;;;;;;;6.28;5.68;;;;;;;;;;5012425;28;20045;-60
2021/11/21 05:31:21;;;;;;;5.68;4.68;;;;;;;;;;5010590;28;20367;-59
2021/11/21 05:33:47;;;;;;;4.55;3.55;;;;;;;;;;5010658;28;20028;-60
2021/11/21 05:36:13;;;;;;;5.78;4.60;;;;;;;;;;5015765;28;20057;-60
2021/11/21 05:38:39;;;;;;;6.70;5.47;;;;;;;;;;5016023;28;20498;-60
2021/11/21 05:41:04;;;;;;;6.38;4.85;;;;;;;;;;5012606;28;20459;-60
2021/11/21 05:43:29;;;;;;;5.57;5.00;;;;;;;;;;5013188;28;20065;-60
2021/11/21 05:45:55;;;;;;;5.32;4.53;;;;;;;;;;5013148;28;20091;-60
2021/11/21 05:48:21;;;;;;;4.57;3.65;;;;;;;;;;5015013;28;20432;-60
2021/11/21 05:50:46;;;;;;;5.82;4.13;;;;;;;;;;5010845;28;20030;-60
2021/11/21 05:53:12;;;;;;;7.40;4.68;;;;;;;;;;5015571;28;20118;-60
2021/11/21 05:55:37;;;;;;;5.13;4.50;;;;;;;;;;5013301;28;20026;-61
2021/11/21 05:58:02;;;;;;;8.70;6.10;;;;;;;;;;5018417;28;20132;-60
2021/11/21 06:00:28;;;;;;;5.07;4.35;;;;;;;;;;5018179;28;20034;-59
2021/11/21 06:02:55;;;;;;;6.45;3.90;;;;;;;;;;5015160;28;20057;-59
2021/11/21 06:05:20;;;;;;;8.20;4.07;;;;;;;;;;5010230;28;20045;-59
2021/11/21 06:07:48;;;;;;;4.72;4.22;;;;;;;;;;5016389;28;20359;-58
2021/11/21 06:10:14;;;;;;;7.78;3.55;;;;;;;;;;5011506;28;20076;-58
2021/11/21 06:12:40;;;;;;;4.60;3.90;;;;;;;;;;5015729;28;20094;-58
2021/11/21 06:15:07;;;;;;;8.55;4.72;;;;;;;;;;5014062;28;20038;-59
2021/11/21 06:17:32;;;;;;;4.20;3.42;;;;;;;;;;5011313;28;20049;-59
2021/11/21 06:19:58;;;;;;;7.20;4.22;;;;;;;;;;5011645;28;20430;-59
2021/11/21 06:22:24;;;;;;;5.07;3.25;;;;;;;;;;5010186;28;20050;-59
2021/11/21 06:24:50;;;;;;;4.30;3.85;;;;;;;;;;5009225;28;20121;-59
2021/11/21 06:27:16;;;;;;;5.97;4.22;;;;;;;;;;5010576;28;20033;-59
2021/11/21 06:29:42;;;;;;;8.70;5.60;;;;;;;;;;5014738;28;20041;-58
2021/11/21 06:32:08;;;;;;;4.97;3.97;;;;;;;;;;5013911;28;20076;-58
2021/11/21 06:34:33;;;;;;;6.18;4.60;;;;;;;;;;5014692;28;20068;-59
2021/11/21 06:37:00;;;;;;;5.60;4.50;;;;;;;;;;5017321;28;20395;-59
2021/11/21 06:39:25;;;;;;;4.65;3.70;;;;;;;;;;5016220;28;20131;-58
2021/11/21 06:41:51;;;;;;;4.38;3.83;;;;;;;;;;5015435;28;20100;-58
2021/11/21 06:44:16;;;;;;;5.68;4.18;;;;;;;;;;5015502;28;20025;-59
2021/11/21 06:46:42;;;;;;;7.65;3.92;;;;;;;;;;5018129;28;20170;-59
2021/11/21 06:49:07;;;;;;;6.05;4.68;;;;;;;;;;5015604;28;20478;-58
2021/11/21 06:51:34;;;;;;;5.07;3.55;;;;;;;;;;5018433;28;20025;-58
2021/11/21 06:53:59;;;;;;;4.53;3.88;;;;;;;;;;5017046;28;20037;-58
2021/11/21 06:56:29;;;;;;;6.13;4.22;;;;;;;;;;5018633;28;21566;-59
2021/11/21 06:58:54;;;;;;;4.55;4.10;;;;;;;;;;5017396;28;20030;-59
2021/11/21 07:01:20;;;;;;;3.83;3.22;;;;;;;;;;5020812;28;20470;-59
2021/11/21 07:03:45;;;;;;;6.35;4.25;;;;;;;;;;5018500;28;20018;-59
2021/11/21 07:06:55;;;;;;;6.53;4.65;;;;;;;;;;5017042;28;20511;-59
2021/11/21 07:09:21;;;;;;;7.95;4.63;;;;;;;;;;5016637;28;20053;-59
2021/11/21 07:11:48;;;;;;;5.32;4.80;;;;;;;;;;5014389;28;20045;-59
2021/11/21 07:14:13;;;;;;;6.00;4.43;;;;;;;;;;5017876;28;20030;-59
2021/11/21 07:16:42;;;;;;;6.63;4.95;;;;;;;;;;5017822;28;20033;-59
2021/11/21 07:19:08;;;;;;;4.57;4.03;;;;;;;;;;5015394;28;20033;-58
2021/11/21 07:21:33;;;;;;;5.72;4.30;;;;;;;;;;5014787;28;20045;-59
2021/11/21 07:23:58;;;;;;;5.90;4.20;;;;;;;;;;5016493;28;20052;-59
2021/11/21 07:26:24;;;;;;;4.57;3.80;;;;;;;;;;5019306;28;20043;-59
2021/11/21 07:28:49;;;;;;;4.80;4.00;;;;;;;;;;5015621;28;20022;-59
2021/11/21 07:31:14;;;;;;;6.10;4.40;;;;;;;;;;5016498;28;20085;-59
2021/11/21 07:33:40;;;;;;;6.25;5.15;;;;;;;;;;5017708;28;20040;-59
2021/11/21 07:36:05;;;;;;;5.40;4.57;;;;;;;;;;5014854;28;20455;-59
2021/11/21 07:38:31;;;;;;;4.75;4.32;;;;;;;;;;5014634;28;20121;-53
2021/11/21 07:40:57;;;;;;;6.45;5.03;;;;;;;;;;5018477;28;20505;-59
2021/11/21 07:43:23;;;;;;;7.32;4.18;;;;;;;;;;5015174;28;20042;-59
2021/11/21 07:45:51;;;;;;;4.30;3.90;;;;;;;;;;5015555;28;20037;-51
2021/11/21 07:48:17;;;;;;;5.15;4.07;;;;;;;;;;5009745;28;20026;-49
2021/11/21 07:50:42;;;;;;;7.70;4.45;;;;;;;;;;5010063;28;20041;-53
2021/11/21 07:53:08;;;;;;;4.93;4.40;;;;;;;;;;5014214;28;20045;-52
2021/11/21 07:55:34;;;;;;;6.85;5.10;;;;;;;;;;5017751;28;20045;-53
2021/11/21 07:58:00;;;;;;;4.05;3.63;;;;;;;;;;5015067;28;20506;-51
2021/11/21 08:00:25;;;;;;;5.40;4.03;;;;;;;;;;5014719;28;20030;-50
2021/11/21 08:02:51;;;;;;;6.63;5.00;;;;;;;;;;5015970;28;20427;-52
2021/11/21 08:05:16;;;;;;;4.40;3.97;;;;;;;;;;5016730;28;20589;-51
2021/11/21 08:07:42;;;;;;;7.05;5.38;;;;;;;;;;5012913;28;20042;-52
2021/11/21 08:10:08;;;;;;;5.20;4.53;;;;;;;;;;5015622;28;20036;-52
2021/11/21 08:12:34;;;;;;;6.85;4.35;;;;;;;;;;5017359;28;20064;-49
2021/11/21 08:14:59;;;;;;;4.97;4.15;;;;;;;;;;5012617;28;20018;-48
2021/11/21 08:17:25;;;;;;;5.50;4.13;;;;;;;;;;5015521;28;20025;-52
2021/11/21 08:19:50;;;;;;;4.88;4.30;;;;;;;;;;5014583;28;20449;-50
2021/11/21 08:22:16;;;;;;;6.38;4.32;;;;;;;;;;5013468;28;20063;-51
2021/11/21 08:24:41;;;;;;;5.43;4.43;;;;;;;;;;5017006;28;20052;-58
2021/11/21 08:27:07;;;;;;;5.65;4.55;;;;;;;;;;5012939;28;20044;-59
2021/11/21 08:29:32;;;;;;;8.77;4.93;;;;;;;;;;5018619;28;20437;-59
2021/11/21 08:31:59;;;;;;;4.70;3.90;;;;;;;;;;5013904;28;20661;-51
2021/11/21 08:34:24;;;;;;;4.38;3.15;;;;;;;;;;5010427;28;20038;-53
2021/11/21 08:36:50;;;;;;;3.67;3.10;;;;;;;;;;5013947;28;20045;-51
2021/11/21 08:39:17;;;;;;;6.63;4.68;;;;;;;;;;5017268;28;20037;-51
2021/11/21 08:41:43;;;;;;;5.63;3.65;;;;;;;;;;5014262;28;20482;-51
2021/11/21 08:44:08;;;;;;;4.65;3.72;;;;;;;;;;5016346;28;20072;-51
2021/11/21 08:46:34;;;;;;;5.80;4.30;;;;;;;;;;5016114;28;20558;-60
2021/11/21 08:49:00;;;;;;;4.85;3.72;;;;;;;;;;5015927;28;20030;-60
2021/11/21 08:51:25;;;;;;;3.97;3.53;;;;;;;;;;5013835;28;20442;-60
2021/11/21 08:53:51;;;;;;;5.82;4.50;;;;;;;;;;5014499;28;20468;-60
2021/11/21 08:56:16;;;;;;;6.65;4.45;;;;;;;;;;5015766;28;20471;-60
2021/11/21 08:58:42;;;;;;;5.90;4.45;;;;;;;;;;5013776;28;20042;-61
2021/11/21 09:01:08;;;;;;;6.47;4.63;;;;;;;;;;5016620;28;20117;-60
2021/11/21 09:03:33;;;;;;;6.20;4.75;;;;;;;;;;5014695;28;20029;-60
2021/11/21 09:05:59;;;;;;;6.85;4.40;;;;;;;;;;5014772;28;20030;-61
2021/11/21 09:08:25;;;;;;;5.15;3.65;;;;;;;;;;5017339;28;20029;-60
2021/11/21 09:10:52;;;;;;;7.10;3.72;;;;;;;;;;5016555;28;20030;-60
2021/11/21 09:13:17;;;;;;;4.15;3.38;;;;;;;;;;5019441;28;20122;-60
2021/11/21 09:15:43;;;;;;;5.75;4.68;;;;;;;;;;5015539;28;20041;-60
2021/11/21 09:18:08;;;;;;;6.22;4.00;;;;;;;;;;5014917;28;20033;-60
2021/11/21 09:20:34;;;;;;;7.05;5.30;;;;;;;;;;5009388;28;20057;-60
2021/11/21 09:23:02;;;;;;;8.90;5.05;;;;;;;;;;5014302;28;20030;-60
2021/11/21 09:25:28;;;;;;;5.68;3.67;;;;;;;;;;5015492;28;20038;-60
2021/11/21 09:27:53;;;;;;;6.03;3.65;;;;;;;;;;5010182;28;20548;-61
2021/11/21 09:30:19;;;;;;;4.75;3.92;;;;;;;;;;5015256;28;20061;-61
2021/11/21 09:32:45;;;;;;;4.93;3.92;;;;;;;;;;5014750;28;20034;-60
2021/11/21 09:35:11;;;;;;;7.43;4.75;;;;;;;;;;5012448;28;20049;-60
2021/11/21 09:37:37;;;;;;;11.63;5.82;;;;;;;;;;5012820;28;20471;-60
2021/11/21 09:40:03;;;;;;;9.75;5.28;;;;;;;;;;5014550;28;20030;-59
2021/11/21 09:42:29;;;;;;;5.35;4.80;;;;;;;;;;5016644;28;20030;-60
2021/11/21 09:44:54;;;;;;;5.40;3.53;;;;;;;;;;5012737;28;20475;-60
2021/11/21 09:47:20;;;;;;;5.25;4.00;;;;;;;;;;5015730;28;20116;-60
2021/11/21 09:49:45;;;;;;;4.80;3.85;;;;;;;;;;5011742;28;20191;-60
2021/11/21 09:52:15;;;;;;;6.70;4.60;;;;;;;;;;5014716;28;20081;-60
2021/11/21 09:54:41;;;;;;;4.43;4.03;;;;;;;;;;5013364;28;20048;-60
2021/11/21 09:57:07;;;;;;;6.60;4.18;;;;;;;;;;5015494;28;20041;-60
2021/11/21 09:59:49;;;;;;;6.82;5.25;;;;;;;;;;5009363;28;20661;-60
2021/11/21 10:02:33;;;;;;;6.18;4.22;;;;;;;;;;5013009;28;20037;-61
2021/11/21 10:05:27;;;;;;;5.72;3.50;;;;;;;;;;5011839;28;20025;-61
2021/11/21 10:08:06;;;;;;;6.50;5.30;;;;;;;;;;5012118;28;20497;-61
2021/11/21 10:11:08;;;;;;;7.25;4.22;;;;;;;;;;5016602;28;20065;-61
2021/11/21 10:13:44;;;;;;;6.68;3.70;;;;;;;;;;4990964;28;20045;-61
2021/11/21 10:16:20;;;;;;;6.30;5.57;;;;;;;;;;5014121;28;20033;-61
2021/11/21 10:18:59;;;;;;;5.65;3.95;;;;;;;;;;5017272;28;20042;-61
2021/11/21 10:21:29;;;;;;;7.10;5.05;;;;;;;;;;5014968;28;20026;-61
2021/11/21 10:24:12;;;;;;;4.88;4.10;;;;;;;;;;5012979;28;20037;-61
2021/11/21 10:26:38;;;;;;;4.25;3.85;;;;;;;;;;5013961;28;20120;-61
2021/11/21 10:29:33;;;;;;;5.43;3.92;;;;;;;;;;5012895;28;20068;-61
2021/11/21 10:32:02;;;;;;;4.53;3.80;;;;;;;;;;5013007;28;20058;-61
2021/11/21 10:34:28;;;;;;;18.17;3.88;;;;;;;;;;5015895;28;20098;-61
2021/11/21 10:36:54;;;;;;;4.47;3.67;;;;;;;;;;5013520;28;20065;-61
2021/11/21 10:39:26;;;;;;;3.75;3.33;;;;;;;;;;5011593;28;20039;-61
2021/11/21 10:41:54;;;;;;;6.28;4.20;;;;;;;;;;5014894;28;20355;-61
2021/11/21 10:44:21;;;;;;;5.13;4.13;;;;;;;;;;5011621;28;20053;-61
2021/11/21 10:46:51;;;;;;;5.60;4.15;;;;;;;;;;5014172;28;20042;-60
2021/11/21 10:49:33;;;;;;;8.02;5.03;;;;;;;;;;5013126;28;20037;-61
2021/11/21 10:52:08;;;;;;;8.00;3.92;;;;;;;;;;5015290;28;20444;-60
2021/11/21 10:54:45;;;;;;;4.07;3.67;;;;;;;;;;5011694;28;20072;-60
2021/11/21 10:57:36;;;;;;;6.50;4.63;;;;;;;;;;5010151;28;20096;-61
2021/11/21 11:00:23;;;;;;;3.78;2.90;;;;;;;;;;5013138;28;20103;-61
2021/11/21 11:02:50;;;;;;;3.90;2.92;;;;;;;;;;5014507;28;20121;-61
2021/11/21 11:05:23;;;;;;;4.15;3.72;;;;;;;;;;5012360;28;20466;-61
2021/11/21 11:07:54;;;;;;;4.55;3.53;;;;;;;;;;5013874;28;20423;-61
2021/11/21 11:10:27;;;;;;;6.32;3.72;;;;;;;;;;5012627;28;20351;-61
2021/11/21 11:13:08;;;;;;;6.10;4.15;;;;;;;;;;5012999;28;20117;-61
2021/11/21 11:15:36;;;;;;;3.33;2.70;;;;;;;;;;5017175;28;20034;-61
2021/11/21 11:18:02;;;;;;;4.65;3.78;;;;;;;;;;5014086;28;20041;-61
2021/11/21 11:20:28;;;;;;;4.60;3.58;;;;;;;;;;5015683;28;20037;-61
2021/11/21 11:22:55;;;;;;;3.65;3.15;;;;;;;;;;5018682;28;20040;-61
2021/11/21 11:25:32;;;;;;;3.67;3.05;;;;;;;;;;5018758;28;20103;-61
2021/11/21 11:28:24;;;;;;;4.00;3.20;;;;;;;;;;5014605;28;20030;-61
2021/11/21 11:30:50;;;;;;;3.95;3.15;;;;;;;;;;5015970;28;20041;-61
2021/11/21 11:33:18;;;;;;;4.35;3.58;;;;;;;;;;5016110;28;20045;-61
2021/11/21 11:35:46;;;;;;;3.58;3.17;;;;;;;;;;5016428;28;20057;-61
2021/11/21 11:38:15;;;;;;;5.25;3.22;;;;;;;;;;5019233;28;20041;-61
2021/11/21 11:40:49;;;;;;;5.45;3.13;;;;;;;;;;5015056;28;20049;-61
2021/11/21 11:43:20;;;;;;;4.20;3.53;;;;;;;;;;5017529;28;20080;-60
2021/11/21 11:45:51;;;;;;;4.65;3.75;;;;;;;;;;5014186;28;20048;-60
2021/11/21 11:48:26;;;;;;;;;;;;;;;;;;5019515;28;20037;-60
2021/11/21 11:50:52;;;;;;;3.45;3.10;;;;;;;;;;5016631;28;19925;-60
2021/11/21 11:53:41;;;;;;;3.55;3.17;;;;;;;;;;5014854;28;20037;-60
2021/11/21 11:56:27;;;;;;;3.60;3.15;;;;;;;;;;5016731;28;20053;-60
2021/11/21 11:58:56;;;;;;;3.92;3.05;;;;;;;;;;5014947;28;20062;-60
2021/11/21 12:01:39;;;;;;;4.90;3.25;;;;;;;;;;5014974;28;20045;-59
2021/11/21 12:04:27;;;;;;;3.22;2.90;;;;;;;;;;5013924;28;20037;-60
2021/11/21 12:07:15;;;;;;;2.95;2.65;;;;;;;;;;5010132;28;20463;-60
2021/11/21 12:09:54;;;;;;;4.82;3.53;;;;;;;;;;5016195;28;20617;-60
2021/11/21 12:12:21;;;;;;;4.35;3.35;;;;;;;;;;5016667;28;20042;-60
2021/11/21 12:14:47;;;;;;;3.65;3.35;;;;;;;;;;5014453;28;20139;-60
2021/11/21 12:17:16;;;;;;;6.25;4.22;;;;;;;;;;5016279;28;20053;-60
2021/11/21 12:19:47;;;;;;;3.97;3.40;;;;;;;;;;5016484;28;20053;-60
2021/11/21 12:22:38;;;;;;;4.60;3.20;;;;;;;;;;5016956;28;20094;-60
2021/11/21 12:25:25;;;;;;;5.55;3.85;;;;;;;;;;5010584;28;20064;-60
2021/11/21 12:27:57;;;;;;;4.78;4.28;;;;;;;;;;5013765;28;20059;-60
2021/11/21 12:30:31;;;;;;;3.83;3.45;;;;;;;;;;5016349;28;20034;-60
2021/11/21 12:33:02;;;;;;;5.65;2.58;;;;;;;;;;5015166;28;20026;-60
2021/11/21 12:35:34;;;;;;;5.47;3.55;;;;;;;;;;5016399;28;20038;-60
2021/11/21 12:38:02;;;;;;;3.60;2.95;;;;;;;;;;5014804;28;20920;-60
2021/11/21 12:40:44;;;;;;;3.47;2.88;;;;;;;;;;5012935;28;20637;-59
2021/11/21 12:43:17;;;;;;;4.32;3.25;;;;;;;;;;5011902;28;20087;-60
2021/11/21 12:45:45;;;;;;;3.00;2.58;;;;;;;;;;5016802;28;20043;-60
2021/11/21 12:48:14;;;;;;;3.40;3.03;;;;;;;;;;5017288;28;20044;-60
2021/11/21 12:50:40;;;;;;;6.13;3.88;;;;;;;;;;5012890;28;20475;-61
2021/11/21 12:53:10;;;;;;;3.50;2.80;;;;;;;;;;5013580;28;20382;-60
2021/11/21 12:55:42;;;;;;;5.03;4.00;;;;;;;;;;5016485;28;20033;-61
2021/11/21 12:58:15;;;;;;;3.90;2.70;;;;;;;;;;5013350;28;20037;-60
2021/11/21 13:00:40;;;;;;;4.78;3.85;;;;;;;;;;5015208;28;20065;-60
2021/11/21 13:03:14;;;;;;;4.10;2.92;;;;;;;;;;5016394;28;20408;-60
2021/11/21 13:05:42;;;;;;;4.43;3.63;;;;;;;;;;5015342;28;20033;-60
2021/11/21 13:08:25;;;;;;;4.60;3.75;;;;;;;;;;5014847;28;20034;-60
2021/11/21 13:10:55;;;;;;;4.13;3.58;;;;;;;;;;5013111;28;20025;-61
2021/11/21 13:13:23;;;;;;;3.05;2.58;;;;;;;;;;5014732;28;20033;-60
2021/11/21 13:15:50;;;;;;;6.22;4.43;;;;;;;;;;5012693;28;20116;-61
2021/11/21 13:18:19;;;;;;;3.92;3.50;;;;;;;;;;5014751;28;20160;-61
2021/11/21 13:20:52;;;;;;;5.35;3.22;;;;;;;;;;5012705;28;20125;-61
2021/11/21 13:23:22;;;;;;;3.20;2.88;;;;;;;;;;5012924;28;20066;-60
2021/11/21 13:25:59;;;;;;;4.25;3.30;;;;;;;;;;5012696;28;20029;-60
2021/11/21 13:28:37;;;;;;;3.60;2.92;;;;;;;;;;5012594;28;20022;-60
2021/11/21 13:31:07;;;;;;;3.95;3.42;;;;;;;;;;5012205;28;20034;-60
2021/11/21 13:33:41;;;;;;;6.22;3.72;;;;;;;;;;5013618;28;20046;-60
2021/11/21 13:36:25;;;;;;;5.53;3.65;;;;;;;;;;5011639;28;20034;-60
2021/11/21 13:38:52;;;;;;;4.47;4.05;;;;;;;;;;5012800;28;20041;-59
2021/11/21 13:41:19;;;;;;;3.97;3.47;;;;;;;;;;5016045;28;20040;-60
2021/11/21 13:43:51;;;;;;;7.28;4.28;;;;;;;;;;5015014;28;20034;-60
2021/11/21 13:46:29;;;;;;;5.70;3.33;;;;;;;;;;5015698;28;20029;-60
2021/11/21 13:48:54;;;;;;;4.03;3.42;;;;;;;;;;5012186;28;20057;-60
2021/11/21 13:51:31;;;;;;;7.03;4.07;;;;;;;;;;4995335;28;20068;-60
2021/11/21 13:54:00;;;;;;;5.35;4.05;;;;;;;;;;5012238;28;20048;-60
2021/11/21 13:56:26;;;;;;;6.90;3.20;;;;;;;;;;5014991;28;20045;-60
2021/11/21 13:58:52;;;;;;;4.38;3.42;;;;;;;;;;5013687;28;20099;-61
2021/11/21 14:01:24;;;;;;;5.18;4.20;;;;;;;;;;5014966;28;20034;-60
2021/11/21 14:03:52;;;;;;;10.38;6.78;;;;;;;;;;5010206;28;20038;-61
2021/11/21 14:06:31;;;;;;;4.65;3.38;;;;;;;;;;5014392;28;20062;-61
2021/11/21 14:08:57;;;;;;;3.42;3.13;;;;;;;;;;5013935;28;20029;-60
2021/11/21 14:11:37;;;;;;;3.85;3.42;;;;;;;;;;5013582;28;20451;-60
2021/11/21 14:14:10;;;;;;;3.78;3.40;;;;;;;;;;5013738;28;20374;-61
2021/11/21 14:16:48;;;;;;;3.85;3.22;;;;;;;;;;5015503;28;20060;-62
2021/11/21 14:19:24;;;;;;;5.13;3.95;;;;;;;;;;5012808;28;20727;-62
2021/11/21 14:22:06;;;;;;;4.15;3.35;;;;;;;;;;5017792;28;20049;-60
2021/11/21 14:24:31;;;;;;;4.70;3.95;;;;;;;;;;5012341;28;20060;-60
2021/11/21 14:27:19;;;;;;;5.22;3.25;;;;;;;;;;5015074;28;20064;-60
2021/11/21 14:30:05;;;;;;;3.80;3.22;;;;;;;;;;5017066;28;20056;-51
2021/11/21 14:32:36;;;;;;;5.97;4.47;;;;;;;;;;5014684;28;20065;-50
2021/11/21 14:35:21;;;;;;;4.00;3.47;;;;;;;;;;5011912;28;20475;-50
2021/11/21 14:37:49;;;;;;;5.40;3.92;;;;;;;;;;5013728;28;20037;-52
2021/11/21 14:40:22;;;;;;;4.50;2.92;;;;;;;;;;5011463;28;20617;-53
2021/11/21 14:42:55;;;;;;;3.00;2.13;;;;;;;;;;5013506;28;20464;-50
2021/11/21 14:45:21;;;;;;;5.30;3.58;;;;;;;;;;5014515;28;20169;-52
2021/11/21 14:47:46;;;;;;;4.68;3.17;;;;;;;;;;5015577;28;20053;-51
2021/11/21 14:50:12;;;;;;;5.50;3.60;;;;;;;;;;5011479;28;20065;-51
2021/11/21 14:52:38;;;;;;;4.25;2.90;;;;;;;;;;5012673;28;20108;-54